sensor_id;sensor_type;location;lat;lon;timestamp;pressure;altitude;pressure_sealevel;temperature;humidity
84188;BME280;76752;45.648;13.764;2024-02-23T00:00:50;100599.75;;;21.48;54.55
84188;BME280;76752;45.648;13.764;2024-02-23T00:03:27;100600.78;;;21.47;55.28
84188;BME280;76752;45.648;13.764;2024-02-23T00:05:58;100598.09;;;21.47;54.99
84188;BME280;76752;45.648;13.764;2024-02-23T00:08:37;100591.09;;;21.46;55.48
84188;BME280;76752;45.648;13.764;2024-02-23T00:11:03;100582.44;;;21.44;54.53
84188;BME280;76752;45.648;13.764;2024-02-23T00:13:29;100579.97;;;21.43;55.59
84188;BME280;76752;45.648;13.764;2024-02-23T00:15:56;100575.44;;;21.43;55.64
84188;BME280;76752;45.648;13.764;2024-02-23T00:18:22;100571.09;;;21.42;55.25
84188;BME280;76752;45.648;13.764;2024-02-23T00:20:48;100573.78;;;21.42;55.50
84188;BME280;76752;45.648;13.764;2024-02-23T00:23:13;100561.41;;;21.41;54.75
84188;BME280;76752;45.648;13.764;2024-02-23T00:25:39;100562.47;;;21.40;54.64
84188;BME280;76752;45.648;13.764;2024-02-23T00:28:06;100562.47;;;21.40;54.98
84188;BME280;76752;45.648;13.764;2024-02-23T00:30:32;100562.69;;;21.39;54.65
84188;BME280;76752;45.648;13.764;2024-02-23T00:32:58;100552.19;;;21.37;55.04
84188;BME280;76752;45.648;13.764;2024-02-23T00:35:23;100553.25;;;21.36;54.75
84188;BME280;76752;45.648;13.764;2024-02-23T00:37:49;100544.38;;;21.36;55.52
84188;BME280;76752;45.648;13.764;2024-02-23T00:40:16;100541.88;;;21.34;55.43
84188;BME280;76752;45.648;13.764;2024-02-23T00:42:42;100544.81;;;21.33;55.38
84188;BME280;76752;45.648;13.764;2024-02-23T00:45:08;100553.66;;;21.33;55.40
84188;BME280;76752;45.648;13.764;2024-02-23T00:47:35;100553.66;;;21.33;55.37
84188;BME280;76752;45.648;13.764;2024-02-23T00:50:02;100535.94;;;21.32;54.91
84188;BME280;76752;45.648;13.764;2024-02-23T00:52:30;100543.97;;;21.32;55.60
84188;BME280;76752;45.648;13.764;2024-02-23T00:54:57;100536.97;;;21.31;54.92
84188;BME280;76752;45.648;13.764;2024-02-23T00:57:23;100540.72;;;21.30;55.40
84188;BME280;76752;45.648;13.764;2024-02-23T00:59:56;100538.25;;;21.28;55.19
84188;BME280;76752;45.648;13.764;2024-02-23T01:02:22;100541.75;;;21.29;55.04
84188;BME280;76752;45.648;13.764;2024-02-23T01:04:48;100534.75;;;21.28;55.15
84188;BME280;76752;45.648;13.764;2024-02-23T01:07:14;100538.47;;;21.27;54.80
84188;BME280;76752;45.648;13.764;2024-02-23T01:09:40;100526.94;;;21.26;54.62
84188;BME280;76752;45.648;13.764;2024-02-23T01:12:06;100536.84;;;21.26;54.51
84188;BME280;76752;45.648;13.764;2024-02-23T01:14:33;100533.31;;;21.25;54.86
84188;BME280;76752;45.648;13.764;2024-02-23T01:16:59;100528.16;;;21.24;54.50
84188;BME280;76752;45.648;13.764;2024-02-23T01:19:25;100528.16;;;21.24;54.36
84188;BME280;76752;45.648;13.764;2024-02-23T01:21:51;100526.50;;;21.23;54.32
84188;BME280;76752;45.648;13.764;2024-02-23T01:24:24;100524.88;;;21.22;53.91
84188;BME280;76752;45.648;13.764;2024-02-23T01:26:51;100531.06;;;21.22;54.91
84188;BME280;76752;45.648;13.764;2024-02-23T01:29:17;100526.97;;;21.20;54.48
84188;BME280;76752;45.648;13.764;2024-02-23T01:31:43;100530.69;;;21.19;54.74
84188;BME280;76752;45.648;13.764;2024-02-23T01:34:09;100522.06;;;21.17;55.36
84188;BME280;76752;45.648;13.764;2024-02-23T01:36:36;100519.38;;;21.17;54.65
84188;BME280;76752;45.648;13.764;2024-02-23T01:39:02;100509.69;;;21.16;55.01
84188;BME280;76752;45.648;13.764;2024-02-23T01:41:29;100508.03;;;21.15;55.67
84188;BME280;76752;45.648;13.764;2024-02-23T01:43:55;100506.41;;;21.14;54.96
84188;BME280;76752;45.648;13.764;2024-02-23T01:46:21;100498.34;;;21.14;55.55
84188;BME280;76752;45.648;13.764;2024-02-23T01:48:47;100499.41;;;21.13;55.62
84188;BME280;76752;45.648;13.764;2024-02-23T01:51:13;100494.03;;;21.13;55.96
84188;BME280;76752;45.648;13.764;2024-02-23T01:53:38;100495.06;;;21.12;55.22
84188;BME280;76752;45.648;13.764;2024-02-23T01:56:05;100488.06;;;21.11;55.01
84188;BME280;76752;45.648;13.764;2024-02-23T01:58:33;100487.25;;;21.10;55.36
84188;BME280;76752;45.648;13.764;2024-02-23T02:01:01;100489.34;;;21.08;55.71
84188;BME280;76752;45.648;13.764;2024-02-23T02:03:26;100485.03;;;21.07;54.95
84188;BME280;76752;45.648;13.764;2024-02-23T02:05:53;100477.81;;;21.08;55.85
84188;BME280;76752;45.648;13.764;2024-02-23T02:08:19;100475.34;;;21.06;54.97
84188;BME280;76752;45.648;13.764;2024-02-23T02:10:45;100473.50;;;21.07;55.51
84188;BME280;76752;45.648;13.764;2024-02-23T02:13:11;100471.84;;;21.06;55.22
84188;BME280;76752;45.648;13.764;2024-02-23T02:15:37;100471.22;;;21.04;55.13
84188;BME280;76752;45.648;13.764;2024-02-23T02:18:03;100462.38;;;21.03;55.42
84188;BME280;76752;45.648;13.764;2024-02-23T02:20:35;100452.47;;;21.04;55.88
84188;BME280;76752;45.648;13.764;2024-02-23T02:23:02;100446.50;;;21.02;55.66
84188;BME280;76752;45.648;13.764;2024-02-23T02:25:28;100444.66;;;21.02;55.66
84188;BME280;76752;45.648;13.764;2024-02-23T02:27:54;100445.47;;;21.03;55.10
84188;BME280;76752;45.648;13.764;2024-02-23T02:30:20;100439.28;;;21.02;55.71
84188;BME280;76752;45.648;13.764;2024-02-23T02:32:46;100422.38;;;21.02;55.87
84188;BME280;76752;45.648;13.764;2024-02-23T02:35:12;100420.72;;;21.00;56.14
84188;BME280;76752;45.648;13.764;2024-02-23T02:37:38;100420.72;;;21.00;55.31
84188;BME280;76752;45.648;13.764;2024-02-23T02:40:04;100417.22;;;21.00;55.63
84188;BME280;76752;45.648;13.764;2024-02-23T02:42:30;100406.75;;;20.98;55.44
84188;BME280;76752;45.648;13.764;2024-02-23T02:44:56;100405.91;;;20.98;55.71
84188;BME280;76752;45.648;13.764;2024-02-23T02:47:22;100406.75;;;20.98;55.56
84188;BME280;76752;45.648;13.764;2024-02-23T02:49:49;100396.00;;;20.98;55.34
84188;BME280;76752;45.648;13.764;2024-02-23T02:52:16;100399.75;;;20.97;55.68
84188;BME280;76752;45.648;13.764;2024-02-23T02:54:42;100405.34;;;20.96;55.89
84188;BME280;76752;45.648;13.764;2024-02-23T02:57:08;100396.47;;;20.95;55.39
84188;BME280;76752;45.648;13.764;2024-02-23T02:59:35;100396.47;;;20.95;55.46
84188;BME280;76752;45.648;13.764;2024-02-23T03:02:01;100391.09;;;20.95;55.27
84188;BME280;76752;45.648;13.764;2024-02-23T03:04:27;100381.41;;;20.94;55.53
84188;BME280;76752;45.648;13.764;2024-02-23T03:06:52;100390.50;;;20.93;56.01
84188;BME280;76752;45.648;13.764;2024-02-23T03:09:18;100393.16;;;20.93;55.17
84188;BME280;76752;45.648;13.764;2024-02-23T03:11:44;100386.16;;;20.92;55.65
84188;BME280;76752;45.648;13.764;2024-02-23T03:14:10;100390.72;;;20.92;55.11
84188;BME280;76752;45.648;13.764;2024-02-23T03:16:35;100387.22;;;20.91;55.20
84188;BME280;76752;45.648;13.764;2024-02-23T03:19:03;100389.09;;;20.91;55.82
84188;BME280;76752;45.648;13.764;2024-02-23T03:21:29;100377.53;;;20.90;55.14
84188;BME280;76752;45.648;13.764;2024-02-23T03:23:55;100377.53;;;20.90;55.21
84188;BME280;76752;45.648;13.764;2024-02-23T03:26:21;100375.09;;;20.89;55.81
84188;BME280;76752;45.648;13.764;2024-02-23T03:28:47;100373.22;;;20.89;55.57
84188;BME280;76752;45.648;13.764;2024-02-23T03:31:14;100371.59;;;20.88;55.51
84188;BME280;76752;45.648;13.764;2024-02-23T03:33:40;100361.91;;;20.87;55.17
84188;BME280;76752;45.648;13.764;2024-02-23T03:36:06;100364.59;;;20.87;56.08
84188;BME280;76752;45.648;13.764;2024-02-23T03:38:32;100366.47;;;20.87;55.52
84188;BME280;76752;45.648;13.764;2024-02-23T03:40:59;100360.28;;;20.86;55.43
84188;BME280;76752;45.648;13.764;2024-02-23T03:43:26;100360.28;;;20.86;55.82
84188;BME280;76752;45.648;13.764;2024-02-23T03:45:52;100360.50;;;20.85;56.01
84188;BME280;76752;45.648;13.764;2024-02-23T03:48:18;100359.69;;;20.84;55.90
84188;BME280;76752;45.648;13.764;2024-02-23T03:50:44;100366.91;;;20.84;55.64
84188;BME280;76752;45.648;13.764;2024-02-23T03:53:10;100357.00;;;20.84;55.89
84188;BME280;76752;45.648;13.764;2024-02-23T03:55:36;100350.00;;;20.83;55.56
84188;BME280;76752;45.648;13.764;2024-02-23T03:58:02;100358.03;;;20.83;55.39
84188;BME280;76752;45.648;13.764;2024-02-23T04:00:28;100354.53;;;20.83;55.39
84188;BME280;76752;45.648;13.764;2024-02-23T04:02:54;100348.34;;;20.82;55.99
84188;BME280;76752;45.648;13.764;2024-02-23T04:05:20;100346.72;;;20.81;55.85
84188;BME280;76752;45.648;13.764;2024-02-23T04:07:45;100344.03;;;20.81;55.55
84188;BME280;76752;45.648;13.764;2024-02-23T04:10:10;100337.63;;;20.82;55.67
84188;BME280;76752;45.648;13.764;2024-02-23T04:12:41;100331.69;;;20.80;55.23
84188;BME280;76752;45.648;13.764;2024-02-23T04:15:09;100337.03;;;20.80;55.43
84188;BME280;76752;45.648;13.764;2024-02-23T04:17:35;100336.47;;;20.78;56.03
84188;BME280;76752;45.648;13.764;2024-02-23T04:20:05;100331.09;;;20.78;56.05
84188;BME280;76752;45.648;13.764;2024-02-23T04:22:32;100327.59;;;20.78;56.25
84188;BME280;76752;45.648;13.764;2024-02-23T04:24:58;100323.28;;;20.77;55.94
84188;BME280;76752;45.648;13.764;2024-02-23T04:27:24;100324.09;;;20.77;55.55
84188;BME280;76752;45.648;13.764;2024-02-23T04:29:50;100328.66;;;20.77;55.50
84188;BME280;76752;45.648;13.764;2024-02-23T04:32:16;100327.00;;;20.76;56.14
84188;BME280;76752;45.648;13.764;2024-02-23T04:34:43;100323.50;;;20.75;56.20
84188;BME280;76752;45.648;13.764;2024-02-23T04:37:09;100320.84;;;20.75;55.39
84188;BME280;76752;45.648;13.764;2024-02-23T04:39:35;100325.38;;;20.75;55.31
84188;BME280;76752;45.648;13.764;2024-02-23T04:42:04;100327.00;;;20.76;55.98
84188;BME280;76752;45.648;13.764;2024-02-23T04:44:30;100318.34;;;20.74;55.65
84188;BME280;76752;45.648;13.764;2024-02-23T04:46:55;100305.81;;;20.74;56.14
84188;BME280;76752;45.648;13.764;2024-02-23T04:49:21;100308.47;;;20.74;55.88
84188;BME280;76752;45.648;13.764;2024-02-23T04:51:48;100307.63;;;20.74;56.12
84188;BME280;76752;45.648;13.764;2024-02-23T04:54:14;100296.09;;;20.73;55.51
84188;BME280;76752;45.648;13.764;2024-02-23T04:56:40;100282.09;;;20.71;55.25
84188;BME280;76752;45.648;13.764;2024-02-23T04:59:06;100281.06;;;20.72;55.58
84188;BME280;76752;45.648;13.764;2024-02-23T05:01:38;100285.38;;;20.73;55.95
84188;BME280;76752;45.648;13.764;2024-02-23T05:04:04;100278.38;;;20.72;55.75
84188;BME280;76752;45.648;13.764;2024-02-23T05:06:29;100271.38;;;20.71;55.42
84188;BME280;76752;45.648;13.764;2024-02-23T05:08:55;100263.34;;;20.71;55.71
84188;BME280;76752;45.648;13.764;2024-02-23T05:11:21;100266.03;;;20.71;55.59
84188;BME280;76752;45.648;13.764;2024-02-23T05:13:47;100257.75;;;20.73;55.71
84188;BME280;76752;45.648;13.764;2024-02-23T05:16:14;100254.25;;;20.72;55.92
84188;BME280;76752;45.648;13.764;2024-02-23T05:18:39;100260.22;;;20.74;55.92
84188;BME280;76752;45.648;13.764;2024-02-23T05:21:06;100262.44;;;20.77;55.94
84188;BME280;76752;45.648;13.764;2024-02-23T05:23:32;100254.41;;;20.77;55.46
84188;BME280;76752;45.648;13.764;2024-02-23T05:25:58;100242.38;;;20.80;56.21
84188;BME280;76752;45.648;13.764;2024-02-23T05:28:24;100242.75;;;20.83;55.77
84188;BME280;76752;45.648;13.764;2024-02-23T05:30:51;100232.63;;;20.85;56.37
84188;BME280;76752;45.648;13.764;2024-02-23T05:33:17;100232.97;;;20.89;56.42
84188;BME280;76752;45.648;13.764;2024-02-23T05:35:46;100234.13;;;20.93;56.24
84188;BME280;76752;45.648;13.764;2024-02-23T05:38:14;100225.66;;;20.96;55.61
84188;BME280;76752;45.648;13.764;2024-02-23T05:40:41;100226.00;;;20.99;56.07
84188;BME280;76752;45.648;13.764;2024-02-23T05:43:07;100224.47;;;21.04;55.21
84188;BME280;76752;45.648;13.764;2024-02-23T05:45:33;100228.34;;;21.08;55.95
84188;BME280;76752;45.648;13.764;2024-02-23T05:47:59;100225.78;;;21.13;55.14
84188;BME280;76752;45.648;13.764;2024-02-23T05:50:25;100228.59;;;21.18;55.17
84188;BME280;76752;45.648;13.764;2024-02-23T05:52:57;100228.13;;;21.21;55.12
84188;BME280;76752;45.648;13.764;2024-02-23T05:55:23;100223.09;;;21.24;55.09
84188;BME280;76752;45.648;13.764;2024-02-23T05:57:49;100213.00;;;21.26;54.76
84188;BME280;76752;45.648;13.764;2024-02-23T06:00:16;100211.47;;;21.31;55.26
84188;BME280;76752;45.648;13.764;2024-02-23T06:02:44;100208.31;;;21.34;55.22
84188;BME280;76752;45.648;13.764;2024-02-23T06:05:10;100195.50;;;21.36;54.83
84188;BME280;76752;45.648;13.764;2024-02-23T06:07:36;100189.91;;;21.37;55.14
84188;BME280;76752;45.648;13.764;2024-02-23T06:10:02;100193.97;;;21.40;54.76
84188;BME280;76752;45.648;13.764;2024-02-23T06:12:29;100180.34;;;21.41;55.13
84188;BME280;76752;45.648;13.764;2024-02-23T06:14:55;100188.16;;;21.43;54.87
84188;BME280;76752;45.648;13.764;2024-02-23T06:17:24;100172.41;;;21.46;54.10
84188;BME280;76752;45.648;13.764;2024-02-23T06:19:50;100183.47;;;21.50;54.35
84188;BME280;76752;45.648;13.764;2024-02-23T06:22:17;100188.84;;;21.50;54.64
84188;BME280;76752;45.648;13.764;2024-02-23T06:24:48;100181.38;;;21.52;54.34
84188;BME280;76752;45.648;13.764;2024-02-23T06:27:14;100176.81;;;21.52;54.06
84188;BME280;76752;45.648;13.764;2024-02-23T06:29:40;100175.75;;;21.53;54.14
84188;BME280;76752;45.648;13.764;2024-02-23T06:32:06;100174.94;;;21.53;54.55
84188;BME280;76752;45.648;13.764;2024-02-23T06:34:32;100179.25;;;21.54;54.89
84188;BME280;76752;45.648;13.764;2024-02-23T06:36:58;100174.72;;;21.54;54.80
84188;BME280;76752;45.648;13.764;2024-02-23T06:39:24;100173.06;;;21.53;54.16
84188;BME280;76752;45.648;13.764;2024-02-23T06:41:51;100177.38;;;21.54;54.24
84188;BME280;76752;45.648;13.764;2024-02-23T06:44:17;100176.34;;;21.55;54.36
84188;BME280;76752;45.648;13.764;2024-02-23T06:46:43;100155.47;;;21.58;54.56
84188;BME280;76752;45.648;13.764;2024-02-23T06:49:09;100160.84;;;21.58;54.56
84188;BME280;76752;45.648;13.764;2024-02-23T06:51:36;100170.53;;;21.59;55.05
84188;BME280;76752;45.648;13.764;2024-02-23T06:54:04;100168.06;;;21.57;54.40
84188;BME280;76752;45.648;13.764;2024-02-23T06:56:30;100158.16;;;21.58;54.49
84188;BME280;76752;45.648;13.764;2024-02-23T06:58:56;100167.25;;;21.56;54.06
84188;BME280;76752;45.648;13.764;2024-02-23T07:01:22;100164.78;;;21.55;54.52
84188;BME280;76752;45.648;13.764;2024-02-23T07:03:48;100160.22;;;21.55;54.24
84188;BME280;76752;45.648;13.764;2024-02-23T07:06:16;100154.06;;;21.55;54.31
84188;BME280;76752;45.648;13.764;2024-02-23T07:08:45;100155.91;;;21.54;54.66
84188;BME280;76752;45.648;13.764;2024-02-23T07:11:14;100159.66;;;21.53;55.26
84188;BME280;76752;45.648;13.764;2024-02-23T07:13:43;100162.34;;;21.53;55.30
84188;BME280;76752;45.648;13.764;2024-02-23T07:16:08;100177.63;;;21.53;55.12
84188;BME280;76752;45.648;13.764;2024-02-23T07:18:37;100177.06;;;21.51;54.97
84188;BME280;76752;45.648;13.764;2024-02-23T07:21:04;100178.94;;;21.50;55.18
84188;BME280;76752;45.648;13.764;2024-02-23T07:23:31;100175.66;;;21.48;54.56
84188;BME280;76752;45.648;13.764;2024-02-23T07:25:56;100175.66;;;21.48;54.64
84188;BME280;76752;45.648;13.764;2024-02-23T07:28:23;100168.91;;;21.46;54.74
84188;BME280;76752;45.648;13.764;2024-02-23T07:30:49;100151.97;;;21.45;54.16
84188;BME280;76752;45.648;13.764;2024-02-23T07:33:15;100153.00;;;21.44;54.58
84188;BME280;76752;45.648;13.764;2024-02-23T07:35:42;100147.66;;;21.44;53.88
84188;BME280;76752;45.648;13.764;2024-02-23T07:38:08;100154.06;;;21.43;54.47
84188;BME280;76752;45.648;13.764;2024-02-23T07:40:35;100149.75;;;21.42;53.78
84188;BME280;76752;45.648;13.764;2024-02-23T07:43:05;100147.06;;;21.42;54.55
84188;BME280;76752;45.648;13.764;2024-02-23T07:45:31;100143.56;;;21.42;54.08
84188;BME280;76752;45.648;13.764;2024-02-23T07:47:59;100142.75;;;21.41;54.55
84188;BME280;76752;45.648;13.764;2024-02-23T07:50:25;100144.38;;;21.42;54.08
84188;BME280;76752;45.648;13.764;2024-02-23T07:52:51;100133.66;;;21.42;54.12
84188;BME280;76752;45.648;13.764;2024-02-23T07:55:17;100122.91;;;21.42;54.16
84188;BME280;76752;45.648;13.764;2024-02-23T07:57:45;100122.09;;;21.42;53.62
84188;BME280;76752;45.648;13.764;2024-02-23T08:00:14;100128.28;;;21.42;53.28
84188;BME280;76752;45.648;13.764;2024-02-23T08:02:40;100113.81;;;21.43;53.72
84188;BME280;76752;45.648;13.764;2024-02-23T08:05:09;100101.44;;;21.42;53.86
84188;BME280;76752;45.648;13.764;2024-02-23T08:07:35;100105.75;;;21.43;53.62
84188;BME280;76752;45.648;13.764;2024-02-23T08:10:01;100104.94;;;21.43;54.29
84188;BME280;76752;45.648;13.764;2024-02-23T08:12:28;100100.63;;;21.42;53.84
84188;BME280;76752;45.648;13.764;2024-02-23T08:14:54;100090.72;;;21.42;53.77
84188;BME280;76752;45.648;13.764;2024-02-23T08:17:20;100082.66;;;21.42;53.86
84188;BME280;76752;45.648;13.764;2024-02-23T08:19:46;100079.16;;;21.42;54.21
84188;BME280;76752;45.648;13.764;2024-02-23T08:22:13;100082.09;;;21.40;53.02
84188;BME280;76752;45.648;13.764;2024-02-23T08:24:39;100066.00;;;21.40;53.33
84188;BME280;76752;45.648;13.764;2024-02-23T08:27:05;100059.81;;;21.40;54.13
84188;BME280;76752;45.648;13.764;2024-02-23T08:29:32;100057.38;;;21.38;54.15
84188;BME280;76752;45.648;13.764;2024-02-23T08:31:59;100058.44;;;21.37;53.61
84188;BME280;76752;45.648;13.764;2024-02-23T08:34:26;100061.94;;;21.38;53.73
84188;BME280;76752;45.648;13.764;2024-02-23T08:36:52;100063.19;;;21.35;52.92
84188;BME280;76752;45.648;13.764;2024-02-23T08:39:18;100057.00;;;21.35;53.35
84188;BME280;76752;45.648;13.764;2024-02-23T08:41:47;100055.97;;;21.36;53.36
84188;BME280;76752;45.648;13.764;2024-02-23T08:44:13;100047.09;;;21.35;53.79
84188;BME280;76752;45.648;13.764;2024-02-23T08:46:38;100046.28;;;21.35;53.70
84188;BME280;76752;45.648;13.764;2024-02-23T08:49:05;100035.78;;;21.33;53.21
84188;BME280;76752;45.648;13.764;2024-02-23T08:51:31;100043.84;;;21.33;52.93
84188;BME280;76752;45.648;13.764;2024-02-23T08:53:58;100049.19;;;21.33;53.50
84188;BME280;76752;45.648;13.764;2024-02-23T08:56:30;100033.09;;;21.33;53.90
84188;BME280;76752;45.648;13.764;2024-02-23T08:58:58;100031.47;;;21.32;53.08
84188;BME280;76752;45.648;13.764;2024-02-23T09:01:24;100035.22;;;21.31;53.74
84188;BME280;76752;45.648;13.764;2024-02-23T09:03:51;100027.97;;;21.32;53.22
84188;BME280;76752;45.648;13.764;2024-02-23T09:06:18;100034.41;;;21.31;53.60
84188;BME280;76752;45.648;13.764;2024-02-23T09:08:45;100037.91;;;21.31;53.07
84188;BME280;76752;45.648;13.764;2024-02-23T09:11:12;100040.56;;;21.31;53.22
84188;BME280;76752;45.648;13.764;2024-02-23T09:13:39;100028.22;;;21.30;53.47
84188;BME280;76752;45.648;13.764;2024-02-23T09:16:05;100029.28;;;21.29;53.66
84188;BME280;76752;45.648;13.764;2024-02-23T09:18:31;100042.13;;;21.27;54.32
84188;BME280;76752;45.648;13.764;2024-02-23T09:20:57;100015.28;;;21.27;53.62
84188;BME280;76752;45.648;13.764;2024-02-23T09:23:25;100016.34;;;21.26;53.48
84188;BME280;76752;45.648;13.764;2024-02-23T09:25:55;100029.94;;;21.24;53.38
84188;BME280;76752;45.648;13.764;2024-02-23T09:28:21;99999.63;;;21.24;53.44
84188;BME280;76752;45.648;13.764;2024-02-23T09:30:47;100006.84;;;21.23;54.39
84188;BME280;76752;45.648;13.764;2024-02-23T09:33:13;99992.63;;;21.23;53.37
84188;BME280;76752;45.648;13.764;2024-02-23T09:35:39;99984.56;;;21.23;53.78
84188;BME280;76752;45.648;13.764;2024-02-23T09:38:05;99984.56;;;21.23;52.99
84188;BME280;76752;45.648;13.764;2024-02-23T09:40:31;99970.34;;;21.22;53.18
84188;BME280;76752;45.648;13.764;2024-02-23T09:42:58;99972.22;;;21.22;53.11
84188;BME280;76752;45.648;13.764;2024-02-23T09:45:27;99965.78;;;21.23;53.83
84188;BME280;76752;45.648;13.764;2024-02-23T09:47:56;99977.56;;;21.22;53.15
84188;BME280;76752;45.648;13.764;2024-02-23T09:50:23;99973.28;;;21.21;52.97
84188;BME280;76752;45.648;13.764;2024-02-23T09:52:50;99979.69;;;21.20;53.18
84188;BME280;76752;45.648;13.764;2024-02-23T09:55:21;99971.66;;;21.20;53.37
84188;BME280;76752;45.648;13.764;2024-02-23T09:57:48;99965.72;;;21.18;53.71
84188;BME280;76752;45.648;13.764;2024-02-23T10:00:17;99979.13;;;21.18;53.05
84188;BME280;76752;45.648;13.764;2024-02-23T10:02:43;99976.69;;;21.16;52.78
84188;BME280;76752;45.648;13.764;2024-02-23T10:05:13;99983.91;;;21.16;53.67
84188;BME280;76752;45.648;13.764;2024-02-23T10:07:40;100013.41;;;21.16;53.49
84188;BME280;76752;45.648;13.764;2024-02-23T10:10:09;99984.38;;;21.13;52.94
84188;BME280;76752;45.648;13.764;2024-02-23T10:12:36;99979.00;;;21.13;52.71
84188;BME280;76752;45.648;13.764;2024-02-23T10:15:03;99962.09;;;21.12;53.17
84188;BME280;76752;45.648;13.764;2024-02-23T10:17:32;99973.06;;;21.11;53.08
84188;BME280;76752;45.648;13.764;2024-02-23T10:20:01;99959.09;;;21.09;53.04
84188;BME280;76752;45.648;13.764;2024-02-23T10:22:31;99967.13;;;21.09;53.05
84188;BME280;76752;45.648;13.764;2024-02-23T10:24:57;99977.84;;;21.09;54.10
84188;BME280;76752;45.648;13.764;2024-02-23T10:27:23;99974.59;;;21.07;53.14
84188;BME280;76752;45.648;13.764;2024-02-23T10:29:50;99959.31;;;21.07;53.05
84188;BME280;76752;45.648;13.764;2024-02-23T10:32:20;99954.22;;;21.06;53.76
84188;BME280;76752;45.648;13.764;2024-02-23T10:34:48;99954.22;;;21.06;53.75
84188;BME280;76752;45.648;13.764;2024-02-23T10:37:17;99965.97;;;21.05;53.83
84188;BME280;76752;45.648;13.764;2024-02-23T10:39:45;99960.59;;;21.05;53.71
84188;BME280;76752;45.648;13.764;2024-02-23T10:42:13;99942.88;;;21.04;53.78
84188;BME280;76752;45.648;13.764;2024-02-23T10:44:42;99942.88;;;21.04;53.31
84188;BME280;76752;45.648;13.764;2024-02-23T10:47:08;99942.88;;;21.04;53.65
84188;BME280;76752;45.648;13.764;2024-02-23T10:49:36;99944.75;;;21.03;52.95
84188;BME280;76752;45.648;13.764;2024-02-23T10:52:04;99928.91;;;21.02;53.39
84188;BME280;76752;45.648;13.764;2024-02-23T10:54:32;99938.56;;;21.03;53.51
84188;BME280;76752;45.648;13.764;2024-02-23T10:56:58;99949.28;;;21.03;53.61
84188;BME280;76752;45.648;13.764;2024-02-23T10:59:25;99942.31;;;21.02;53.53
84188;BME280;76752;45.648;13.764;2024-02-23T11:01:54;99935.06;;;21.02;53.88
84188;BME280;76752;45.648;13.764;2024-02-23T11:04:24;99932.63;;;21.00;53.06
84188;BME280;76752;45.648;13.764;2024-02-23T11:06:55;99939.06;;;20.99;53.40
84188;BME280;76752;45.648;13.764;2024-02-23T11:09:24;99949.22;;;20.97;53.21
84188;BME280;76752;45.648;13.764;2024-02-23T11:11:57;99942.78;;;20.98;53.19
84188;BME280;76752;45.648;13.764;2024-02-23T11:14:35;99933.13;;;20.97;53.60
84188;BME280;76752;45.648;13.764;2024-02-23T11:17:02;99931.00;;;20.99;53.42
84188;BME280;76752;45.648;13.764;2024-02-23T11:19:39;99920.28;;;20.99;53.63
84188;BME280;76752;45.648;13.764;2024-02-23T11:22:09;99907.44;;;21.02;53.74
84188;BME280;76752;45.648;13.764;2024-02-23T11:24:42;99922.22;;;21.04;53.64
84188;BME280;76752;45.648;13.764;2024-02-23T11:27:14;99914.78;;;21.06;53.22
84188;BME280;76752;45.648;13.764;2024-02-23T11:29:46;99895.78;;;21.08;52.56
84188;BME280;76752;45.648;13.764;2024-02-23T11:32:16;99913.00;;;21.12;52.47
84188;BME280;76752;45.648;13.764;2024-02-23T11:35:03;99891.91;;;21.15;52.96
84188;BME280;76752;45.648;13.764;2024-02-23T11:37:30;99896.78;;;21.18;52.20
84188;BME280;76752;45.648;13.764;2024-02-23T11:39:56;99904.09;;;21.23;52.75
84188;BME280;76752;45.648;13.764;2024-02-23T11:42:26;99892.94;;;21.26;52.81
84188;BME280;76752;45.648;13.764;2024-02-23T11:44:53;99872.84;;;21.28;52.33
84188;BME280;76752;45.648;13.764;2024-02-23T11:47:20;99906.75;;;21.35;52.25
84188;BME280;76752;45.648;13.764;2024-02-23T11:49:47;99874.91;;;21.38;51.99
84188;BME280;76752;45.648;13.764;2024-02-23T11:52:12;99883.53;;;21.40;52.55
84188;BME280;76752;45.648;13.764;2024-02-23T11:54:38;99882.22;;;21.43;52.43
84188;BME280;76752;45.648;13.764;2024-02-23T11:57:04;99871.03;;;21.46;52.73
84188;BME280;76752;45.648;13.764;2024-02-23T11:59:30;99868.09;;;21.47;52.09
84188;BME280;76752;45.648;13.764;2024-02-23T12:01:57;99871.34;;;21.49;52.13
84188;BME280;76752;45.648;13.764;2024-02-23T12:04:23;99862.22;;;21.50;52.39
84188;BME280;76752;45.648;13.764;2024-02-23T12:06:52;99849.38;;;21.52;52.40
84188;BME280;76752;45.648;13.764;2024-02-23T12:09:18;99837.56;;;21.53;52.13
84188;BME280;76752;45.648;13.764;2024-02-23T12:11:45;99843.50;;;21.55;51.98
84188;BME280;76752;45.648;13.764;2024-02-23T12:14:11;99840.59;;;21.57;51.72
84188;BME280;76752;45.648;13.764;2024-02-23T12:16:40;99832.31;;;21.59;51.71
84188;BME280;76752;45.648;13.764;2024-02-23T12:19:07;99816.19;;;21.59;52.58
84188;BME280;76752;45.648;13.764;2024-02-23T12:21:34;99833.94;;;21.60;52.56
84188;BME280;76752;45.648;13.764;2024-02-23T12:24:05;99810.91;;;21.64;53.22
84188;BME280;76752;45.648;13.764;2024-02-23T12:26:33;99806.09;;;21.66;52.78
84188;BME280;76752;45.648;13.764;2024-02-23T12:29:00;99829.78;;;21.69;52.69
84188;BME280;76752;45.648;13.764;2024-02-23T12:31:28;99812.63;;;21.70;52.74
84188;BME280;76752;45.648;13.764;2024-02-23T12:33:53;99798.13;;;21.71;53.05
84188;BME280;76752;45.648;13.764;2024-02-23T12:36:20;99785.25;;;21.73;52.89
84188;BME280;76752;45.648;13.764;2024-02-23T12:38:48;99790.31;;;21.69;53.57
84188;BME280;76752;45.648;13.764;2024-02-23T12:41:13;99782.53;;;21.68;53.27